Murdock, Nebraska
Current Conditions -  °F | °C
As of 5:15 AM on Thursday 23 Oct 2014 (Local Time) from KPMV Reporting Station
Overcast Overcast  
Wind Chill: 16°   Ceiling: 800
Heat Index: 16°   Visibility: 7mi
Dew Point: 15°   Wind: 7mph
Humidity: 93%   Direction: 190°S
Pressure: 30.04"   Gusts: NA
Location:  40.93°N, 96.28°W
Report Text: KPMV 231015Z AUTO 19006KT 7SM BKN008 OVC020 16/15 A3004 RMK AO2 T01580146
Loading
Personal Weather Stations






























Interactive Weather Map
Tropical Storm Tracking
New forecast layout! Learn more

10-Day Weather Forecast

Advertisements
Track Severe Weather on mobile